Time;durP1;ratioP1;P1;durP2;ratioP2;P2;SDS_P1;SDS_P2;PMS_P1;PMS_P2;Temp;Humidity;BMP_temperature;BMP_pressure;BME280_temperature;BME280_humidity;BME280_pressure;Samples;Min_cycle;Max_cycle;Signal;HPM_P1;HPM_P2
2023/07/13 00:01:02;;;;;;;8.23;2.07;;;;;;;;;;5070062;28;20624;-65
2023/07/13 00:03:34;;;;;;;3.50;2.30;;;;;;;;;;5069261;28;21202;-65
2023/07/13 00:06:03;;;;;;;2.90;2.70;;;;;;;;;;5070023;28;21193;-66
2023/07/13 00:08:33;;;;;;;2.00;1.90;;;;;;;;;;5070392;28;20610;-64
2023/07/13 00:11:01;;;;;;;6.10;2.50;;;;;;;;;;5068010;28;20648;-64
2023/07/13 00:13:30;;;;;;;4.53;1.97;;;;;;;;;;5069805;28;20599;-64
2023/07/13 00:16:00;;;;;;;4.57;2.30;;;;;;;;;;5049519;28;20661;-65
2023/07/13 00:18:30;;;;;;;3.90;2.00;;;;;;;;;;5050765;28;20912;-64
2023/07/13 00:21:04;;;;;;;2.10;2.00;;;;;;;;;;5049430;28;20692;-66
2023/07/13 00:23:33;;;;;;;4.37;1.90;;;;;;;;;;5054366;28;21113;-67
2023/07/13 00:26:01;;;;;;;4.00;2.17;;;;;;;;;;5053484;28;21283;-64
2023/07/13 00:28:30;;;;;;;2.00;1.90;;;;;;;;;;5056829;28;20633;-64
2023/07/13 00:30:59;;;;;;;3.30;2.37;;;;;;;;;;5072398;28;20629;-65
2023/07/13 00:33:28;;;;;;;4.73;2.07;;;;;;;;;;5074105;28;20606;-64
2023/07/13 00:35:57;;;;;;;4.90;1.87;;;;;;;;;;5072423;28;20679;-64
2023/07/13 00:38:25;;;;;;;2.70;2.00;;;;;;;;;;5070228;28;20641;-64
2023/07/13 00:40:53;;;;;;;3.27;1.90;;;;;;;;;;5073260;28;20626;-64
2023/07/13 00:43:23;;;;;;;2.40;2.20;;;;;;;;;;5072779;28;20641;-64
2023/07/13 00:46:13;;;;;;;3.47;1.80;;;;;;;;;;5072799;28;21176;-64
2023/07/13 00:48:44;;;;;;;3.63;2.20;;;;;;;;;;5074056;28;20610;-64
2023/07/13 00:51:12;;;;;;;3.23;2.57;;;;;;;;;;5072981;28;20606;-64
2023/07/13 00:53:43;;;;;;;4.93;3.07;;;;;;;;;;5071972;28;20614;-64
2023/07/13 00:56:12;;;;;;;5.40;2.60;;;;;;;;;;5071399;28;21024;-64
2023/07/13 00:58:40;;;;;;;6.90;2.67;;;;;;;;;;5073301;28;20641;-64
2023/07/13 01:01:08;;;;;;;2.80;2.50;;;;;;;;;;5080351;28;20632;-65
2023/07/13 01:03:40;;;;;;;2.33;2.13;;;;;;;;;;5092557;28;20650;-66
2023/07/13 01:06:08;;;;;;;3.17;2.40;;;;;;;;;;5092865;28;20639;-64
2023/07/13 01:08:36;;;;;;;3.87;2.33;;;;;;;;;;5092916;28;20660;-63
2023/07/13 01:11:05;;;;;;;2.27;2.07;;;;;;;;;;5092779;28;20685;-64
2023/07/13 01:13:33;;;;;;;2.27;2.17;;;;;;;;;;5094220;28;20646;-63
2023/07/13 01:16:04;;;;;;;2.37;2.20;;;;;;;;;;5090902;28;20687;-63
2023/07/13 01:18:33;;;;;;;4.27;2.10;;;;;;;;;;5090555;28;20608;-64
2023/07/13 01:21:04;;;;;;;2.40;2.17;;;;;;;;;;5094179;28;20986;-67
2023/07/13 01:23:32;;;;;;;5.20;2.23;;;;;;;;;;5092770;28;20613;-64
2023/07/13 01:26:00;;;;;;;9.87;2.40;;;;;;;;;;5082532;28;20665;-63
2023/07/13 01:28:29;;;;;;;2.00;1.90;;;;;;;;;;5093742;28;20649;-64
2023/07/13 01:31:00;;;;;;;3.40;1.93;;;;;;;;;;5087069;28;20638;-63
2023/07/13 01:33:28;;;;;;;2.50;2.00;;;;;;;;;;5071918;28;20602;-64
2023/07/13 01:35:58;;;;;;;2.67;2.20;;;;;;;;;;5073843;28;20651;-63
2023/07/13 01:38:28;;;;;;;2.80;2.10;;;;;;;;;;5073525;28;21051;-63
2023/07/13 01:40:57;;;;;;;3.90;2.20;;;;;;;;;;5083550;28;20660;-63
2023/07/13 01:43:27;;;;;;;7.10;1.90;;;;;;;;;;5093516;28;20636;-63
2023/07/13 01:45:55;;;;;;;2.70;2.30;;;;;;;;;;5093135;28;20638;-63
2023/07/13 01:48:23;;;;;;;2.50;2.40;;;;;;;;;;5092882;28;21147;-63
2023/07/13 01:50:52;;;;;;;2.60;2.40;;;;;;;;;;5093898;28;20657;-65
2023/07/13 01:53:20;;;;;;;6.70;2.60;;;;;;;;;;5093067;28;20600;-67
2023/07/13 01:55:49;;;;;;;4.30;2.30;;;;;;;;;;5093648;28;20686;-63
2023/07/13 01:58:17;;;;;;;2.73;2.50;;;;;;;;;;5092957;28;20665;-64
2023/07/13 02:00:46;;;;;;;2.23;2.07;;;;;;;;;;5091795;28;20630;-65
2023/07/13 02:03:17;;;;;;;2.90;2.10;;;;;;;;;;5091552;28;20634;-66
2023/07/13 02:05:46;;;;;;;3.20;2.10;;;;;;;;;;5093364;28;20676;-65
2023/07/13 02:08:15;;;;;;;3.43;2.23;;;;;;;;;;5093313;28;20609;-65
2023/07/13 02:10:43;;;;;;;2.73;2.07;;;;;;;;;;5093748;28;20664;-63
2023/07/13 02:13:13;;;;;;;2.10;2.00;;;;;;;;;;5092157;28;20665;-64
2023/07/13 02:15:41;;;;;;;3.50;2.43;;;;;;;;;;5093610;28;20668;-64
2023/07/13 02:18:09;;;;;;;2.27;2.07;;;;;;;;;;5093703;28;20618;-64
2023/07/13 02:20:38;;;;;;;2.70;1.87;;;;;;;;;;5092675;28;20616;-64
2023/07/13 02:23:06;;;;;;;2.00;1.90;;;;;;;;;;5093892;28;20657;-65
2023/07/13 02:25:34;;;;;;;2.27;2.07;;;;;;;;;;5094061;28;20641;-67
2023/07/13 02:28:03;;;;;;;3.70;2.30;;;;;;;;;;5092886;28;20626;-65
2023/07/13 02:30:32;;;;;;;5.30;2.00;;;;;;;;;;5093498;28;21009;-64
2023/07/13 02:33:01;;;;;;;5.37;2.17;;;;;;;;;;5093202;28;20637;-64
2023/07/13 02:35:29;;;;;;;7.23;2.30;;;;;;;;;;5093643;28;20696;-64
2023/07/13 02:37:59;;;;;;;3.53;2.10;;;;;;;;;;5092457;28;20646;-64
2023/07/13 02:40:27;;;;;;;4.50;2.63;;;;;;;;;;5091203;28;20649;-65
2023/07/13 02:42:55;;;;;;;3.10;2.30;;;;;;;;;;5092754;28;20621;-64
2023/07/13 02:45:23;;;;;;;3.47;1.93;;;;;;;;;;5092614;28;20618;-64
2023/07/13 02:47:53;;;;;;;3.10;2.23;;;;;;;;;;5091895;28;20647;-63
2023/07/13 02:50:21;;;;;;;7.53;2.07;;;;;;;;;;5092488;28;20646;-63
2023/07/13 02:52:49;;;;;;;2.10;2.00;;;;;;;;;;5091854;28;20638;-67
2023/07/13 02:55:18;;;;;;;2.87;2.60;;;;;;;;;;5074950;28;20642;-66
2023/07/13 02:57:46;;;;;;;3.77;2.10;;;;;;;;;;5080886;28;20678;-64
2023/07/13 03:00:16;;;;;;;2.73;2.50;;;;;;;;;;5076394;28;20626;-68
2023/07/13 03:02:45;;;;;;;3.90;2.10;;;;;;;;;;5089866;28;20642;-69
2023/07/13 03:05:15;;;;;;;3.63;2.20;;;;;;;;;;5090821;28;20642;-65
2023/07/13 03:07:50;;;;;;;4.10;2.20;;;;;;;;;;5090135;28;20629;-64
2023/07/13 03:10:18;;;;;;;3.00;2.07;;;;;;;;;;5091096;28;20632;-64
2023/07/13 03:12:50;;;;;;;2.20;2.10;;;;;;;;;;5063460;28;20664;-64
2023/07/13 03:15:24;;;;;;;2.40;2.17;;;;;;;;;;5077504;28;20617;-66
2023/07/13 03:17:55;;;;;;;7.63;2.33;;;;;;;;;;5088631;28;20643;-63
2023/07/13 03:20:24;;;;;;;2.30;1.80;;;;;;;;;;5090883;28;20620;-64
2023/07/13 03:22:52;;;;;;;2.63;2.07;;;;;;;;;;5073364;28;20595;-65
2023/07/13 03:25:21;;;;;;;5.17;1.97;;;;;;;;;;5090573;28;20657;-65
2023/07/13 03:27:51;;;;;;;3.50;2.40;;;;;;;;;;5089362;28;20612;-65
2023/07/13 03:30:19;;;;;;;4.07;2.70;;;;;;;;;;5091480;28;20593;-64
2023/07/13 03:32:48;;;;;;;2.97;2.73;;;;;;;;;;5074501;28;20646;-64
2023/07/13 03:35:16;;;;;;;5.77;2.77;;;;;;;;;;5091572;28;20643;-68
2023/07/13 03:37:46;;;;;;;3.50;1.80;;;;;;;;;;5090960;28;20662;-67
2023/07/13 03:40:19;;;;;;;3.33;2.60;;;;;;;;;;5092074;28;20658;-66
2023/07/13 03:42:48;;;;;;;3.03;1.93;;;;;;;;;;5090503;28;20600;-65
2023/07/13 03:45:18;;;;;;;5.23;2.20;;;;;;;;;;5091757;28;20606;-64
2023/07/13 03:47:46;;;;;;;4.43;2.70;;;;;;;;;;5074796;28;20606;-64
2023/07/13 03:50:17;;;;;;;5.60;2.23;;;;;;;;;;5071878;28;20603;-67
2023/07/13 03:52:46;;;;;;;3.57;1.93;;;;;;;;;;5071444;28;20579;-67
2023/07/13 03:55:17;;;;;;;3.00;2.50;;;;;;;;;;5071177;28;20651;-64
2023/07/13 03:57:46;;;;;;;6.23;2.23;;;;;;;;;;5057003;28;20675;-68
2023/07/13 04:00:15;;;;;;;2.80;2.30;;;;;;;;;;5075110;28;20590;-68
2023/07/13 04:02:47;;;;;;;3.80;2.90;;;;;;;;;;5073873;28;20560;-66
2023/07/13 04:05:15;;;;;;;2.73;2.43;;;;;;;;;;5073779;28;20611;-65
2023/07/13 04:07:48;;;;;;;2.40;2.20;;;;;;;;;;5075663;28;20625;-68
2023/07/13 04:10:16;;;;;;;5.17;2.00;;;;;;;;;;5075672;28;20633;-65
2023/07/13 04:12:45;;;;;;;4.30;2.80;;;;;;;;;;5075686;28;20609;-69
2023/07/13 04:15:13;;;;;;;5.80;2.20;;;;;;;;;;5074912;28;20643;-63
2023/07/13 04:17:41;;;;;;;5.03;2.40;;;;;;;;;;5076108;28;20655;-64
2023/07/13 04:20:10;;;;;;;2.47;2.27;;;;;;;;;;5075168;28;20671;-65
2023/07/13 04:22:38;;;;;;;6.13;2.80;;;;;;;;;;5078292;28;20618;-63
2023/07/13 04:25:08;;;;;;;19.50;3.10;;;;;;;;;;5095031;28;20638;-67
2023/07/13 04:27:36;;;;;;;4.20;2.20;;;;;;;;;;5096246;28;20631;-65
2023/07/13 04:30:05;;;;;;;3.73;2.60;;;;;;;;;;5094779;28;20645;-67
2023/07/13 04:32:33;;;;;;;2.53;1.93;;;;;;;;;;5094570;28;20654;-63
2023/07/13 04:35:01;;;;;;;2.70;2.27;;;;;;;;;;5095635;28;20620;-63
2023/07/13 04:37:29;;;;;;;2.37;2.17;;;;;;;;;;5095751;28;20672;-63
2023/07/13 04:39:57;;;;;;;5.23;2.50;;;;;;;;;;5092625;28;20645;-63
2023/07/13 04:42:27;;;;;;;2.53;2.33;;;;;;;;;;5095791;28;20634;-64
2023/07/13 04:44:55;;;;;;;2.37;2.00;;;;;;;;;;5094071;28;20654;-66
2023/07/13 04:47:24;;;;;;;2.53;2.33;;;;;;;;;;5094857;28;20683;-66
2023/07/13 04:49:52;;;;;;;10.63;3.43;;;;;;;;;;5094447;28;20626;-63
2023/07/13 04:52:21;;;;;;;4.77;2.60;;;;;;;;;;5084205;28;20651;-63
2023/07/13 04:54:49;;;;;;;6.73;3.77;;;;;;;;;;5074918;28;20634;-63
2023/07/13 04:57:17;;;;;;;3.70;2.77;;;;;;;;;;5091820;28;20661;-67
2023/07/13 04:59:47;;;;;;;2.40;2.20;;;;;;;;;;5094866;28;20612;-65
2023/07/13 05:02:15;;;;;;;3.23;2.57;;;;;;;;;;5094164;28;20661;-66
2023/07/13 05:04:43;;;;;;;4.13;2.50;;;;;;;;;;5086335;28;21226;-65
2023/07/13 05:07:12;;;;;;;3.00;2.80;;;;;;;;;;5094379;28;20617;-62
2023/07/13 05:09:40;;;;;;;3.10;2.70;;;;;;;;;;5093330;28;20658;-62
2023/07/13 05:12:09;;;;;;;3.27;2.73;;;;;;;;;;5089727;28;20641;-65
2023/07/13 05:14:37;;;;;;;2.70;2.50;;;;;;;;;;5094664;28;20639;-62
2023/07/13 05:17:07;;;;;;;3.20;2.30;;;;;;;;;;5094574;28;20673;-66
2023/07/13 05:19:35;;;;;;;3.00;2.70;;;;;;;;;;5094543;28;20641;-64
2023/07/13 05:22:03;;;;;;;5.47;2.53;;;;;;;;;;5094285;28;20683;-64
2023/07/13 05:24:32;;;;;;;3.70;2.40;;;;;;;;;;5092699;28;20626;-64
2023/07/13 05:27:00;;;;;;;6.70;2.93;;;;;;;;;;5093211;28;20637;-64
2023/07/13 05:29:31;;;;;;;4.87;2.50;;;;;;;;;;5081905;28;20653;-64
2023/07/13 05:31:59;;;;;;;3.67;2.57;;;;;;;;;;5093915;28;20614;-67
2023/07/13 05:34:29;;;;;;;2.53;2.43;;;;;;;;;;5092332;28;20676;-65
2023/07/13 05:36:57;;;;;;;2.53;2.30;;;;;;;;;;5090468;28;20635;-63
2023/07/13 05:39:26;;;;;;;19.60;3.50;;;;;;;;;;5090793;28;20653;-64
2023/07/13 05:41:54;;;;;;;4.23;2.60;;;;;;;;;;5091471;28;20661;-65
2023/07/13 05:44:22;;;;;;;4.07;2.50;;;;;;;;;;5091329;28;20620;-65
2023/07/13 05:46:50;;;;;;;3.70;2.60;;;;;;;;;;5093547;28;20604;-65
2023/07/13 05:49:18;;;;;;;5.07;2.67;;;;;;;;;;5087724;28;20645;-66
2023/07/13 05:51:48;;;;;;;2.70;2.20;;;;;;;;;;5073774;28;20638;-67
2023/07/13 05:54:16;;;;;;;5.10;2.07;;;;;;;;;;5073546;28;20616;-66
2023/07/13 05:56:45;;;;;;;8.27;3.43;;;;;;;;;;5087661;28;20623;-69
2023/07/13 05:59:13;;;;;;;4.50;2.20;;;;;;;;;;5091153;28;20682;-65
2023/07/13 06:01:42;;;;;;;3.87;2.43;;;;;;;;;;5089801;28;20633;-64
2023/07/13 06:04:11;;;;;;;3.50;2.30;;;;;;;;;;5086404;28;20646;-63
2023/07/13 06:06:39;;;;;;;2.63;2.43;;;;;;;;;;5085495;28;20691;-62
2023/07/13 06:09:08;;;;;;;6.30;2.57;;;;;;;;;;5082635;28;20660;-64
2023/07/13 06:11:37;;;;;;;3.43;2.40;;;;;;;;;;5083278;28;21095;-64
2023/07/13 06:14:05;;;;;;;3.83;2.87;;;;;;;;;;5076774;28;20704;-63
2023/07/13 06:16:33;;;;;;;2.70;2.50;;;;;;;;;;5086053;28;20654;-64
2023/07/13 06:19:01;;;;;;;5.63;2.57;;;;;;;;;;5084851;28;20710;-63
2023/07/13 06:21:29;;;;;;;3.23;2.83;;;;;;;;;;5082458;28;20729;-63
2023/07/13 06:23:58;;;;;;;2.80;2.60;;;;;;;;;;5064812;28;20715;-64
2023/07/13 06:26:28;;;;;;;2.40;2.10;;;;;;;;;;5084394;28;20712;-63
2023/07/13 06:28:56;;;;;;;3.10;2.43;;;;;;;;;;5084031;28;21235;-63
2023/07/13 06:31:24;;;;;;;3.70;2.70;;;;;;;;;;5083245;28;20690;-66
2023/07/13 06:33:52;;;;;;;3.27;2.50;;;;;;;;;;5083681;28;20718;-63
2023/07/13 06:36:20;;;;;;;2.63;2.53;;;;;;;;;;5086642;28;20630;-65
2023/07/13 06:38:49;;;;;;;2.87;2.67;;;;;;;;;;5083466;28;20721;-63
2023/07/13 06:41:17;;;;;;;2.83;2.53;;;;;;;;;;5082697;28;20686;-64
2023/07/13 06:43:47;;;;;;;4.33;2.53;;;;;;;;;;5085380;28;20689;-65
2023/07/13 06:46:15;;;;;;;3.83;2.57;;;;;;;;;;5081176;28;20706;-65
2023/07/13 06:48:43;;;;;;;3.20;2.90;;;;;;;;;;5085990;28;20683;-64
2023/07/13 06:51:12;;;;;;;5.27;2.60;;;;;;;;;;5089896;28;20634;-65
2023/07/13 06:53:40;;;;;;;2.07;1.93;;;;;;;;;;5088283;28;20645;-64
2023/07/13 06:56:08;;;;;;;2.60;2.40;;;;;;;;;;5089476;28;21065;-65
2023/07/13 06:58:36;;;;;;;3.73;2.50;;;;;;;;;;5089981;28;20673;-65
2023/07/13 07:01:06;;;;;;;9.50;2.70;;;;;;;;;;5086430;28;20948;-66
2023/07/13 07:03:34;;;;;;;4.40;2.60;;;;;;;;;;5086110;28;20658;-65
2023/07/13 07:06:03;;;;;;;2.67;2.47;;;;;;;;;;5082520;28;20681;-66
2023/07/13 07:08:31;;;;;;;5.20;2.63;;;;;;;;;;5081729;28;20702;-63
2023/07/13 07:10:59;;;;;;;3.20;2.90;;;;;;;;;;5080517;28;20797;-64
2023/07/13 07:13:29;;;;;;;5.63;3.07;;;;;;;;;;5071610;28;20738;-62
2023/07/13 07:15:59;;;;;;;3.30;3.10;;;;;;;;;;5078525;28;20684;-63
2023/07/13 07:18:29;;;;;;;5.83;2.57;;;;;;;;;;5080758;28;20736;-63
2023/07/13 07:20:57;;;;;;;3.67;2.60;;;;;;;;;;5081774;28;20674;-63
2023/07/13 07:23:26;;;;;;;4.50;3.20;;;;;;;;;;5079091;28;20690;-63
2023/07/13 07:25:54;;;;;;;3.90;3.60;;;;;;;;;;5079964;28;20713;-63
2023/07/13 07:28:22;;;;;;;5.17;3.20;;;;;;;;;;5078354;28;20683;-64
2023/07/13 07:30:54;;;;;;;9.60;5.60;;;;;;;;;;5076925;28;20709;-66
2023/07/13 07:33:22;;;;;;;3.30;3.10;;;;;;;;;;5069713;28;20610;-67
2023/07/13 07:35:52;;;;;;;3.03;2.87;;;;;;;;;;5070426;28;20618;-66
2023/07/13 07:38:20;;;;;;;5.87;3.50;;;;;;;;;;5068428;28;20717;-66
2023/07/13 07:40:48;;;;;;;3.27;3.07;;;;;;;;;;5069849;28;20629;-65
2023/07/13 07:43:16;;;;;;;3.63;2.83;;;;;;;;;;5070826;28;20968;-67
2023/07/13 07:45:46;;;;;;;4.13;2.87;;;;;;;;;;5069593;28;20630;-67
2023/07/13 07:48:14;;;;;;;5.80;3.10;;;;;;;;;;5070009;28;21149;-68
2023/07/13 07:50:43;;;;;;;6.10;3.07;;;;;;;;;;5069080;28;20961;-65
2023/07/13 07:53:12;;;;;;;3.50;2.80;;;;;;;;;;5069852;28;20679;-67
2023/07/13 07:55:41;;;;;;;3.30;3.00;;;;;;;;;;5069936;28;20628;-66
2023/07/13 07:58:10;;;;;;;4.10;3.60;;;;;;;;;;5070238;28;20658;-66
2023/07/13 08:00:38;;;;;;;4.90;3.77;;;;;;;;;;5067221;28;20629;-67
2023/07/13 08:03:06;;;;;;;4.00;3.27;;;;;;;;;;5068451;28;20636;-66
2023/07/13 08:05:36;;;;;;;3.87;3.00;;;;;;;;;;5069143;28;20630;-66
2023/07/13 08:08:05;;;;;;;3.73;3.50;;;;;;;;;;5074786;28;20594;-67
2023/07/13 08:10:37;;;;;;;4.33;3.40;;;;;;;;;;5091290;28;20653;-66
2023/07/13 08:13:05;;;;;;;3.90;3.70;;;;;;;;;;5084530;28;20653;-67
2023/07/13 08:15:33;;;;;;;3.90;3.60;;;;;;;;;;5091780;28;20668;-69
2023/07/13 08:18:02;;;;;;;4.27;3.37;;;;;;;;;;5094927;28;20618;-66
2023/07/13 08:20:30;;;;;;;3.70;3.40;;;;;;;;;;5092802;28;20623;-66
2023/07/13 08:22:58;;;;;;;3.20;3.00;;;;;;;;;;5094121;28;20634;-67
2023/07/13 08:25:26;;;;;;;3.00;2.87;;;;;;;;;;5091485;28;20648;-68
2023/07/13 08:27:56;;;;;;;3.53;3.07;;;;;;;;;;5092949;28;20630;-65
2023/07/13 08:30:24;;;;;;;5.67;3.10;;;;;;;;;;5092168;28;20630;-67
2023/07/13 08:32:54;;;;;;;5.37;3.67;;;;;;;;;;5094710;28;20602;-66
2023/07/13 08:35:22;;;;;;;3.47;3.27;;;;;;;;;;5092208;28;20646;-67
2023/07/13 08:37:51;;;;;;;3.73;3.50;;;;;;;;;;5092825;28;20634;-67
2023/07/13 08:40:21;;;;;;;3.40;3.20;;;;;;;;;;5086517;28;20752;-67
2023/07/13 08:42:54;;;;;;;3.70;3.50;;;;;;;;;;5092750;28;20590;-67
2023/07/13 08:45:25;;;;;;;3.73;3.50;;;;;;;;;;5094416;28;20621;-68
2023/07/13 08:47:55;;;;;;;4.23;3.80;;;;;;;;;;5096554;28;20606;-67
2023/07/13 08:50:26;;;;;;;3.77;3.53;;;;;;;;;;5096436;28;20618;-65
2023/07/13 08:52:57;;;;;;;3.40;3.10;;;;;;;;;;5096686;28;20602;-65
2023/07/13 08:55:28;;;;;;;3.67;3.37;;;;;;;;;;5090928;28;21175;-64
2023/07/13 08:58:01;;;;;;;3.37;3.20;;;;;;;;;;5070879;28;20710;-65
2023/07/13 09:00:35;;;;;;;3.47;3.20;;;;;;;;;;5080341;28;20727;-65
2023/07/13 09:03:04;;;;;;;3.60;3.40;;;;;;;;;;5085215;28;20685;-65
2023/07/13 09:05:35;;;;;;;3.70;3.37;;;;;;;;;;5084171;28;20678;-64
2023/07/13 09:08:09;;;;;;;3.43;2.97;;;;;;;;;;5084222;28;20674;-64
2023/07/13 09:10:41;;;;;;;4.40;3.60;;;;;;;;;;5086300;28;20737;-64
2023/07/13 09:13:24;;;;;;;4.53;3.50;;;;;;;;;;5083932;28;20682;-65
2023/07/13 09:15:54;;;;;;;3.97;3.53;;;;;;;;;;5084796;28;20634;-66
2023/07/13 09:18:25;;;;;;;4.23;3.90;;;;;;;;;;5083787;28;20714;-66
2023/07/13 09:20:55;;;;;;;3.60;3.30;;;;;;;;;;5085504;28;20767;-65
2023/07/13 09:23:25;;;;;;;3.53;3.20;;;;;;;;;;5083115;28;20694;-68
2023/07/13 09:25:55;;;;;;;5.50;2.93;;;;;;;;;;5085013;28;21290;-65
2023/07/13 09:28:25;;;;;;;3.53;3.23;;;;;;;;;;5079939;28;20783;-66
2023/07/13 09:30:58;;;;;;;5.30;3.37;;;;;;;;;;5082693;28;21207;-65
2023/07/13 09:33:29;;;;;;;3.87;3.60;;;;;;;;;;5077769;28;20658;-67
2023/07/13 09:35:58;;;;;;;3.20;3.00;;;;;;;;;;5082050;28;20708;-65
2023/07/13 09:38:28;;;;;;;4.67;3.63;;;;;;;;;;5083879;28;20650;-65
2023/07/13 09:41:08;;;;;;;6.27;3.80;;;;;;;;;;5087973;28;20669;-64
2023/07/13 09:43:37;;;;;;;3.80;3.40;;;;;;;;;;5078849;28;21139;-65
2023/07/13 09:46:21;;;;;;;4.07;3.73;;;;;;;;;;5084258;28;20717;-65
2023/07/13 09:48:49;;;;;;;3.93;3.47;;;;;;;;;;5076627;28;20674;-64
2023/07/13 09:51:18;;;;;;;7.27;3.97;;;;;;;;;;5074219;28;20717;-65
2023/07/13 09:53:46;;;;;;;4.13;3.20;;;;;;;;;;5068361;28;20683;-65
2023/07/13 09:56:21;;;;;;;8.00;3.40;;;;;;;;;;5062206;28;21251;-64
2023/07/13 09:58:49;;;;;;;4.13;3.53;;;;;;;;;;5075946;28;20744;-63
2023/07/13 10:01:32;;;;;;;5.00;3.93;;;;;;;;;;5079597;28;20726;-64
2023/07/13 10:04:00;;;;;;;3.30;3.10;;;;;;;;;;5078035;28;20884;-64
2023/07/13 10:06:28;;;;;;;3.50;3.20;;;;;;;;;;5079469;28;20837;-64
2023/07/13 10:08:58;;;;;;;3.27;3.07;;;;;;;;;;5079386;28;21278;-64
2023/07/13 10:11:29;;;;;;;3.87;3.67;;;;;;;;;;5078483;28;20650;-65
2023/07/13 10:13:59;;;;;;;6.13;3.97;;;;;;;;;;5069250;28;20737;-64
2023/07/13 10:16:32;;;;;;;3.70;3.40;;;;;;;;;;5077926;28;20694;-65
2023/07/13 10:19:02;;;;;;;4.03;3.63;;;;;;;;;;5072586;28;20705;-65
2023/07/13 10:21:33;;;;;;;3.50;3.20;;;;;;;;;;5068606;28;20690;-64
2023/07/13 10:24:11;;;;;;;4.10;2.90;;;;;;;;;;5074637;28;20705;-66
2023/07/13 10:26:42;;;;;;;3.67;3.40;;;;;;;;;;5068662;28;20684;-65
2023/07/13 10:29:13;;;;;;;3.60;3.30;;;;;;;;;;5076261;28;20664;-64
2023/07/13 10:31:43;;;;;;;4.37;3.97;;;;;;;;;;5069584;28;20697;-66
2023/07/13 10:34:12;;;;;;;3.83;3.53;;;;;;;;;;5075093;28;20682;-64
2023/07/13 10:36:42;;;;;;;3.90;3.50;;;;;;;;;;5071907;28;20706;-64
2023/07/13 10:39:12;;;;;;;6.20;3.60;;;;;;;;;;5064480;28;20622;-65
2023/07/13 10:41:42;;;;;;;3.90;3.60;;;;;;;;;;5078952;28;20749;-65
2023/07/13 10:44:15;;;;;;;3.73;3.53;;;;;;;;;;5079805;28;20682;-65
2023/07/13 10:46:45;;;;;;;3.83;3.33;;;;;;;;;;5063703;28;21200;-64
2023/07/13 10:49:14;;;;;;;6.83;3.50;;;;;;;;;;5064787;28;20697;-69
2023/07/13 10:51:42;;;;;;;3.57;3.27;;;;;;;;;;5077567;28;20722;-65
2023/07/13 10:54:18;;;;;;;4.70;3.90;;;;;;;;;;5080265;28;20679;-65
2023/07/13 10:56:46;;;;;;;3.43;3.23;;;;;;;;;;5077548;28;20681;-65
2023/07/13 10:59:17;;;;;;;3.50;3.30;;;;;;;;;;5077910;28;21310;-65
2023/07/13 11:01:55;;;;;;;3.53;3.23;;;;;;;;;;5075351;28;20630;-65
2023/07/13 11:04:25;;;;;;;3.20;3.00;;;;;;;;;;5073613;28;20722;-64
2023/07/13 11:06:55;;;;;;;4.13;3.30;;;;;;;;;;5072017;28;20724;-65
2023/07/13 11:09:40;;;;;;;3.60;3.40;;;;;;;;;;5073665;28;20693;-65
2023/07/13 11:12:14;;;;;;;5.03;3.87;;;;;;;;;;5073876;28;20681;-65
2023/07/13 11:15:02;;;;;;;3.60;3.40;;;;;;;;;;5077207;28;20729;-64
2023/07/13 11:17:39;;;;;;;3.77;3.57;;;;;;;;;;5072962;28;20705;-65
2023/07/13 11:20:20;;;;;;;3.70;3.40;;;;;;;;;;5074078;28;20693;-64
2023/07/13 11:22:51;;;;;;;4.07;3.70;;;;;;;;;;5075616;28;20707;-64
2023/07/13 11:25:27;;;;;;;5.17;3.40;;;;;;;;;;5077539;28;20675;-65
2023/07/13 11:28:06;;;;;;;6.80;3.50;;;;;;;;;;5076897;28;20750;-66
2023/07/13 11:30:39;;;;;;;4.50;3.70;;;;;;;;;;5070525;28;20710;-65
2023/07/13 11:33:17;;;;;;;3.50;3.30;;;;;;;;;;5074852;28;20678;-63
2023/07/13 11:35:49;;;;;;;3.77;3.47;;;;;;;;;;5072435;28;21058;-64
2023/07/13 11:38:18;;;;;;;3.90;3.60;;;;;;;;;;5076133;28;20677;-63
2023/07/13 11:40:47;;;;;;;7.27;3.90;;;;;;;;;;5073988;28;20721;-63
2023/07/13 11:43:17;;;;;;;5.23;4.47;;;;;;;;;;5076508;28;20706;-63
2023/07/13 11:45:45;;;;;;;3.63;3.40;;;;;;;;;;5058803;28;20716;-64
2023/07/13 11:48:22;;;;;;;3.93;3.73;;;;;;;;;;5076435;28;20709;-63
2023/07/13 11:50:54;;;;;;;6.53;3.50;;;;;;;;;;5074678;28;20681;-63
2023/07/13 11:53:23;;;;;;;7.27;4.93;;;;;;;;;;5072963;28;20662;-63
2023/07/13 11:55:52;;;;;;;5.07;3.67;;;;;;;;;;5075232;28;20708;-64
2023/07/13 11:58:23;;;;;;;3.67;3.47;;;;;;;;;;5077619;28;20815;-63
2023/07/13 12:00:54;;;;;;;4.57;3.83;;;;;;;;;;5077104;28;20622;-63
2023/07/13 12:03:25;;;;;;;3.63;3.43;;;;;;;;;;5076856;28;20693;-63
2023/07/13 12:05:57;;;;;;;8.10;3.90;;;;;;;;;;5075749;28;20606;-65
2023/07/13 12:08:26;;;;;;;3.67;3.43;;;;;;;;;;5076994;28;20674;-64
2023/07/13 12:11:01;;;;;;;4.93;3.70;;;;;;;;;;5067315;28;20667;-64
2023/07/13 12:13:30;;;;;;;3.90;3.70;;;;;;;;;;5074332;28;20720;-64
2023/07/13 12:15:58;;;;;;;4.30;4.00;;;;;;;;;;5069663;28;21041;-65
2023/07/13 12:18:33;;;;;;;3.90;3.60;;;;;;;;;;5077340;28;20941;-64
2023/07/13 12:21:03;;;;;;;4.20;4.00;;;;;;;;;;5080311;28;20633;-64
2023/07/13 12:23:32;;;;;;;4.17;3.87;;;;;;;;;;5081348;28;21180;-65
2023/07/13 12:26:03;;;;;;;4.13;3.83;;;;;;;;;;5077677;28;20713;-64
2023/07/13 12:28:33;;;;;;;4.37;4.07;;;;;;;;;;5072128;28;21279;-64
2023/07/13 12:31:03;;;;;;;4.10;3.70;;;;;;;;;;5080101;28;20674;-66
2023/07/13 12:33:33;;;;;;;3.83;3.70;;;;;;;;;;5076408;28;20709;-67
2023/07/13 12:36:02;;;;;;;4.20;3.90;;;;;;;;;;5079860;28;20701;-64
2023/07/13 12:38:32;;;;;;;3.97;3.77;;;;;;;;;;5082848;28;20689;-63
2023/07/13 12:41:00;;;;;;;4.23;4.03;;;;;;;;;;5080065;28;20741;-63
2023/07/13 12:43:36;;;;;;;4.43;4.23;;;;;;;;;;5079524;28;20689;-63
2023/07/13 12:46:05;;;;;;;6.17;4.00;;;;;;;;;;5078448;28;20713;-64
2023/07/13 12:48:45;;;;;;;3.77;3.47;;;;;;;;;;5081548;28;21146;-66
2023/07/13 12:51:13;;;;;;;3.83;3.63;;;;;;;;;;5080608;28;20692;-64
2023/07/13 12:53:43;;;;;;;4.27;3.83;;;;;;;;;;5080231;28;21191;-65
2023/07/13 12:56:16;;;;;;;3.50;3.20;;;;;;;;;;5079243;28;21227;-64
2023/07/13 12:58:46;;;;;;;3.93;3.73;;;;;;;;;;5079653;28;20760;-65
2023/07/13 13:01:15;;;;;;;3.67;3.47;;;;;;;;;;5081054;28;20745;-69
2023/07/13 13:03:49;;;;;;;4.20;3.80;;;;;;;;;;5079172;28;20780;-65
2023/07/13 13:06:23;;;;;;;3.77;3.57;;;;;;;;;;5075075;28;20704;-65
2023/07/13 13:08:56;;;;;;;4.10;3.90;;;;;;;;;;5096059;28;20602;-66
2023/07/13 13:11:27;;;;;;;4.20;3.87;;;;;;;;;;5097825;28;20633;-69
2023/07/13 13:13:55;;;;;;;4.10;3.80;;;;;;;;;;5098968;28;20644;-68
2023/07/13 13:16:24;;;;;;;7.50;3.60;;;;;;;;;;5097180;28;20633;-66
2023/07/13 13:18:56;;;;;;;3.87;3.63;;;;;;;;;;5094235;28;20638;-66
2023/07/13 13:21:25;;;;;;;4.20;3.93;;;;;;;;;;5095031;28;20666;-66
2023/07/13 13:23:54;;;;;;;3.70;3.50;;;;;;;;;;5093669;28;20656;-65
2023/07/13 13:26:23;;;;;;;3.70;3.50;;;;;;;;;;5091535;28;20641;-64
2023/07/13 13:28:51;;;;;;;3.90;3.60;;;;;;;;;;5092241;28;20622;-65
2023/07/13 13:31:19;;;;;;;4.07;3.80;;;;;;;;;;5094367;28;20630;-64
2023/07/13 13:33:48;;;;;;;4.10;4.00;;;;;;;;;;5092393;28;20632;-64
2023/07/13 13:36:18;;;;;;;4.43;4.13;;;;;;;;;;5093464;28;20648;-66
2023/07/13 13:38:47;;;;;;;4.00;3.80;;;;;;;;;;5087075;28;20672;-65
2023/07/13 13:41:16;;;;;;;4.03;3.83;;;;;;;;;;5087386;28;20697;-64
2023/07/13 13:43:45;;;;;;;4.20;3.90;;;;;;;;;;5092229;28;20642;-67
2023/07/13 13:46:15;;;;;;;3.90;3.70;;;;;;;;;;5090769;28;20634;-62
2023/07/13 13:48:43;;;;;;;5.90;4.13;;;;;;;;;;5090810;28;20594;-64
2023/07/13 13:51:14;;;;;;;5.53;3.20;;;;;;;;;;5089623;28;20686;-64
2023/07/13 13:53:45;;;;;;;3.80;3.40;;;;;;;;;;5061601;28;21034;-64
2023/07/13 13:56:13;;;;;;;4.00;3.37;;;;;;;;;;5057078;28;20682;-64
2023/07/13 13:58:41;;;;;;;3.70;3.50;;;;;;;;;;5074533;28;20745;-64
2023/07/13 14:01:14;;;;;;;4.00;3.70;;;;;;;;;;5085709;28;20737;-64
2023/07/13 14:03:42;;;;;;;3.33;3.23;;;;;;;;;;5085108;28;20693;-63
2023/07/13 14:06:13;;;;;;;5.83;3.77;;;;;;;;;;5084587;28;21240;-62
2023/07/13 14:08:41;;;;;;;6.73;3.70;;;;;;;;;;5084188;28;20678;-63
2023/07/13 14:11:12;;;;;;;9.13;4.00;;;;;;;;;;5081841;28;20781;-65
2023/07/13 14:13:42;;;;;;;3.87;3.40;;;;;;;;;;5080617;28;20730;-63
2023/07/13 14:16:13;;;;;;;4.20;3.80;;;;;;;;;;5084466;28;20642;-63
2023/07/13 14:18:41;;;;;;;3.70;3.50;;;;;;;;;;5081719;28;20659;-63
2023/07/13 14:21:16;;;;;;;4.17;3.80;;;;;;;;;;5088162;28;20634;-63
2023/07/13 14:23:45;;;;;;;4.67;4.20;;;;;;;;;;5082473;28;20737;-66
2023/07/13 14:26:16;;;;;;;4.07;3.77;;;;;;;;;;5087789;28;20654;-66
2023/07/13 14:28:45;;;;;;;3.70;3.50;;;;;;;;;;5085910;28;20709;-65
2023/07/13 14:31:14;;;;;;;3.93;3.63;;;;;;;;;;5080864;28;20687;-63
2023/07/13 14:33:43;;;;;;;3.50;3.30;;;;;;;;;;5082289;28;20664;-64
2023/07/13 14:36:25;;;;;;;4.03;3.80;;;;;;;;;;5071264;28;20710;-64
2023/07/13 14:38:53;;;;;;;4.37;4.00;;;;;;;;;;5082387;28;21048;-64
2023/07/13 14:41:22;;;;;;;3.93;3.70;;;;;;;;;;5083879;28;20710;-64
2023/07/13 14:43:51;;;;;;;3.73;3.43;;;;;;;;;;5084746;28;20634;-65
2023/07/13 14:46:28;;;;;;;4.50;4.07;;;;;;;;;;5082959;28;20702;-63
2023/07/13 14:49:01;;;;;;;3.83;3.50;;;;;;;;;;5080890;28;20645;-63
2023/07/13 14:51:30;;;;;;;5.10;4.60;;;;;;;;;;5080554;28;20646;-63
2023/07/13 14:53:58;;;;;;;6.60;3.63;;;;;;;;;;5085771;28;20658;-65
2023/07/13 14:56:27;;;;;;;4.90;3.93;;;;;;;;;;5081992;28;20646;-64
2023/07/13 14:58:55;;;;;;;3.37;3.27;;;;;;;;;;5087974;28;20700;-63